Time;durP1;ratioP1;P1;durP2;ratioP2;P2;SDS_P1;SDS_P2;PMS_P1;PMS_P2;Temp;Humidity;BMP_temperature;BMP_pressure;BME280_temperature;BME280_humidity;BME280_pressure;Samples;Min_cycle;Max_cycle;Signal;HPM_P1;HPM_P2
2022/12/18 00:04:41;;;;;;;;;;;;;;;-6.15;100.00;96724.63;10511471;28;1923;-69
2022/12/18 00:09:44;;;;;;;;;;;;;;;-6.48;100.00;96718.19;10510484;28;1915;-68
2022/12/18 00:14:47;;;;;;;;;;;;;;;-6.67;100.00;96725.13;10518892;28;2054;-68
2022/12/18 00:19:50;;;;;;;;;;;;;;;-6.76;100.00;96720.75;10507025;28;1947;-68
2022/12/18 00:24:54;;;;;;;;;;;;;;;-6.80;100.00;96729.84;10503387;28;1903;-69
2022/12/18 00:29:59;;;;;;;;;;;;;;;-6.73;100.00;96712.63;10522175;28;1987;-68
2022/12/18 00:35:02;;;;;;;;;;;;;;;-6.95;100.00;96744.31;10510398;28;1955;-68
2022/12/18 00:40:05;;;;;;;;;;;-5.70;99.90;;;-6.92;100.00;96746.69;10515551;28;2117;-70
2022/12/18 00:45:07;;;;;;;;;;;-5.70;99.90;;;-6.88;100.00;96748.03;10512383;28;1981;-69
2022/12/18 00:50:14;;;;;;;;;;;-5.70;99.90;;;-6.89;100.00;96756.84;10511978;28;2057;-69
2022/12/18 00:55:17;;;;;;;;;;;-5.70;99.90;;;-6.81;100.00;96755.19;10515530;28;1907;-70
2022/12/18 01:00:20;;;;;;;;;;;-5.60;99.90;;;-6.72;100.00;96755.28;10507296;28;1966;-67
2022/12/18 01:05:22;;;;;;;;;;;-5.60;99.90;;;-6.64;100.00;96758.81;10511787;28;1969;-68
2022/12/18 01:10:25;;;;;;;;;;;-5.50;99.90;;;-6.74;100.00;96763.28;10519327;28;2065;-70
2022/12/18 01:15:28;;;;;;;;;;;-5.50;99.90;;;-6.65;100.00;96764.22;10512038;28;1924;-73
2022/12/18 01:20:30;;;;;;;;;;;-5.50;99.90;;;-6.77;100.00;96786.25;10517494;28;1995;-70
2022/12/18 01:25:33;;;;;;;;;;;-5.50;99.90;;;-6.60;100.00;96796.81;10511197;28;1981;-71
2022/12/18 01:30:36;;;;;;;;;;;-5.50;99.90;;;-6.50;100.00;96804.63;10521507;28;1942;-68
2022/12/18 01:35:38;;;;;;;;;;;-5.40;99.90;;;-6.53;100.00;96813.59;10522161;28;1922;-68
2022/12/18 01:40:41;;;;;;;;;;;-5.40;99.90;;;-6.54;100.00;96811.94;10521206;28;1978;-68
2022/12/18 01:45:44;;;;;;;;;;;-5.30;99.90;;;-6.55;100.00;96812.91;10511939;28;1966;-69
2022/12/18 01:50:49;;;;;;;;;;;-5.30;99.90;;;-6.53;100.00;96808.34;10517721;28;2011;-69
2022/12/18 01:55:52;;;;;;;;;;;-5.30;99.90;;;-6.54;100.00;96814.56;10516047;28;2009;-68
2022/12/18 02:00:54;;;;;;;;;;;-5.30;99.90;;;-6.51;100.00;96823.06;10511298;28;1974;-68
2022/12/18 02:05:57;;;;;;;;;;;-5.40;99.90;;;-6.49;100.00;96811.50;10511912;28;1983;-71
2022/12/18 02:11:00;;;;;;;;;;;-5.30;99.90;;;-6.35;100.00;96805.00;10509228;28;2042;-67
2022/12/18 02:16:02;;;;;;;;;;;-5.30;99.90;;;-6.39;100.00;96798.41;10513555;28;1979;-70
2022/12/18 02:21:05;;;;;;;;;;;-5.20;99.90;;;-6.43;100.00;96789.19;10515230;28;2048;-73
2022/12/18 02:26:08;;;;;;;;;;;-5.30;99.90;;;-6.47;100.00;96800.91;10517068;28;1990;-70
2022/12/18 02:31:10;;;;;;;;;;;-5.30;99.90;;;-6.61;100.00;96791.75;10516602;28;1995;-69
2022/12/18 02:36:14;;;;;;;;;;;-5.40;99.90;;;-6.60;100.00;96796.00;10509021;28;1951;-69
2022/12/18 02:41:17;;;;;;;;;;;-5.40;99.90;;;-6.59;100.00;96784.56;10514542;28;1931;-70
2022/12/18 02:46:20;;;;;;;;;;;-5.40;99.90;;;-6.49;100.00;96787.13;10515748;28;2086;-75
2022/12/18 02:51:23;;;;;;;;;;;-5.40;99.90;;;-6.46;100.00;96790.31;10515907;28;1967;-70
2022/12/18 02:56:25;;;;;;;;;;;-5.30;99.90;;;-6.46;100.00;96799.94;10504239;28;2093;-68
2022/12/18 03:01:28;;;;;;;;;;;-5.30;99.90;;;-6.37;100.00;96796.44;10506164;28;2093;-68
2022/12/18 03:06:31;;;;;;;;;;;-5.20;99.90;;;-6.49;100.00;96797.59;10517461;28;2022;-69
2022/12/18 03:16:54;;;;;;;;;;;-5.30;99.90;;;-6.47;100.00;96785.22;10510224;28;1935;-69
2022/12/18 03:21:56;;;;;;;;;;;-5.30;99.90;;;-6.45;100.00;96778.03;10511959;28;2152;-68
2022/12/18 03:26:59;;;;;;;;;;;-5.30;99.90;;;-6.53;100.00;96789.22;10507432;28;1982;-68
2022/12/18 03:32:02;;;;;;;;;;;-5.30;99.90;;;-6.57;100.00;96783.44;10509195;28;2111;-70
2022/12/18 03:37:05;;;;;;;;;;;-5.30;99.90;;;-6.49;100.00;96787.13;10516235;28;1998;-67
2022/12/18 03:42:08;;;;;;;;;;;-5.30;99.90;;;-6.48;100.00;96799.28;10490338;28;2097;-69
2022/12/18 03:47:10;;;;;;;;;;;-5.30;99.90;;;-6.45;100.00;96798.97;10509466;28;1926;-68
2022/12/18 03:52:14;;;;;;;;;;;-5.30;99.90;;;-6.45;100.00;96804.19;10514061;28;1962;-68
2022/12/18 03:57:16;;;;;;;;;;;-5.30;99.90;;;-6.31;100.00;96788.84;10508325;28;2118;-69
2022/12/18 04:02:19;;;;;;;;;;;-5.20;99.90;;;-6.25;100.00;96795.31;10516555;28;2225;-70
2022/12/18 04:07:22;;;;;;;;;;;-5.10;99.90;;;-6.45;100.00;96799.78;10507126;28;2002;-69
2022/12/18 04:12:26;;;;;;;;;;;-5.20;99.90;;;-6.40;100.00;96802.00;10495586;28;1967;-69
2022/12/18 04:17:29;;;;;;;;;;;-5.20;99.90;;;-6.37;100.00;96793.84;10508726;28;2040;-69
2022/12/18 04:22:31;;;;;;;;;;;-5.20;99.90;;;-6.46;100.00;96797.31;10504062;28;2038;-69
2022/12/18 04:27:34;;;;;;;;;;;-5.20;99.90;;;-6.38;100.00;96802.66;10507264;28;2019;-72
2022/12/18 04:32:37;;;;;;;;;;;-5.20;99.90;;;-6.30;100.00;96810.59;10513741;28;2145;-68
2022/12/18 04:37:40;;;;;;;;;;;-5.20;99.90;;;-6.22;100.00;96809.91;10516384;28;2081;-69
2022/12/18 04:42:43;;;;;;;;;;;-5.00;99.90;;;-6.45;100.00;96805.03;10520352;28;2042;-68
2022/12/18 04:47:46;;;;;;;;;;;-5.10;99.90;;;-6.22;100.00;96809.91;10504463;28;1926;-69
2022/12/18 04:52:49;;;;;;;;;;;-5.10;99.90;;;-6.19;100.00;96828.75;10495606;28;1903;-69
2022/12/18 04:57:52;;;;;;;;;;;-5.00;99.90;;;-6.28;100.00;96824.41;10509255;28;1962;-70
2022/12/18 05:03:00;;;;;;;;;;;-5.00;99.90;;;-6.31;100.00;96819.44;10516840;28;2037;-72
2022/12/18 05:08:03;;;;;;;;;;;-5.10;99.90;;;-6.22;100.00;96823.81;10514619;28;2027;-70
2022/12/18 05:13:07;;;;;;;;;;;-5.10;99.90;;;-6.36;100.00;96826.88;10510813;28;2049;-70
2022/12/18 05:18:09;;;;;;;;;;;-5.10;99.90;;;-6.32;100.00;96838.72;10515139;28;2028;-69
2022/12/18 05:23:12;;;;;;;;;;;-5.10;99.90;;;-6.31;100.00;96835.13;10508855;28;1978;-69
2022/12/18 05:28:15;;;;;;;;;;;-5.10;99.90;;;-6.24;100.00;96833.59;10507901;28;2046;-69
2022/12/18 05:33:17;;;;;;;;;;;-5.10;99.90;;;-6.08;100.00;96844.28;10514753;28;2127;-67
2022/12/18 05:38:20;;;;;;;;;;;-5.00;99.90;;;-6.14;100.00;96842.25;10518402;28;2037;-68
2022/12/18 05:43:23;;;;;;;;;;;-4.90;99.90;;;-5.99;100.00;96853.06;10485757;28;1979;-68
2022/12/18 05:48:25;;;;;;;;;;;-4.90;99.90;;;-6.02;100.00;96850.75;10504077;28;2103;-68
2022/12/18 05:53:28;;;;;;;;;;;-4.90;99.90;;;-6.02;100.00;96850.75;10506272;28;2066;-69
2022/12/18 05:58:31;;;;;;;;;;;-4.90;99.90;;;-5.87;100.00;96856.28;10510361;28;1949;-68
2022/12/18 06:03:36;;;;;;;;;;;-4.80;99.90;;;-5.89;100.00;96855.63;10525267;28;1950;-69
2022/12/18 06:08:39;;;;;;;;;;;-4.80;99.90;;;-5.79;100.00;96861.63;10518662;28;1967;-69
2022/12/18 06:13:48;;;;;;;;;;;-4.70;99.90;;;-6.10;100.00;96858.50;10516804;28;1919;-68
2022/12/18 06:18:56;;;;;;;;;;;-4.70;99.90;;;-6.24;100.00;96862.38;10512936;28;1973;-69
2022/12/18 06:24:03;;;;;;;;;;;-4.90;99.90;;;-6.26;100.00;96859.09;10503259;28;2024;-72
2022/12/18 06:29:05;;;;;;;;;;;-5.00;99.90;;;-6.22;100.00;96859.63;10516584;28;2264;-70
2022/12/18 06:34:08;;;;;;;;;;;-5.00;99.90;;;-6.31;100.00;96877.00;10516511;28;1967;-70
2022/12/18 06:39:11;;;;;;;;;;;-5.10;99.90;;;-6.36;100.00;96885.28;10523392;28;1966;-69
2022/12/18 06:44:14;;;;;;;;;;;-5.10;99.90;;;-6.42;100.00;96885.03;10509787;28;1981;-68
2022/12/18 06:49:16;;;;;;;;;;;-5.20;99.90;;;-6.51;100.00;96889.28;10516353;28;1954;-69
2022/12/18 06:54:23;;;;;;;;;;;-5.20;99.90;;;-6.64;100.00;96894.81;10514137;28;1903;-68
2022/12/18 06:59:25;;;;;;;;;;;-5.40;99.90;;;-6.63;100.00;96909.53;10516956;28;1946;-68
2022/12/18 07:04:29;;;;;;;;;;;-5.40;99.90;;;-6.57;100.00;96908.16;10490649;28;1947;-70
2022/12/18 07:09:32;;;;;;;;;;;-5.40;99.90;;;-6.67;100.00;96921.25;10474986;28;2105;-69
2022/12/18 07:14:34;;;;;;;;;;;-5.40;99.90;;;-6.68;100.00;96919.63;10464002;28;2106;-69
2022/12/18 07:19:37;;;;;;;;;;;-5.40;99.90;;;-6.56;100.00;96925.50;10467402;28;1964;-69
2022/12/18 07:24:41;;;;;;;;;;;-5.40;99.90;;;-6.43;100.00;96931.28;10472127;28;1937;-68
2022/12/18 07:29:45;;;;;;;;;;;-5.30;99.90;;;-6.21;100.00;96939.78;10468981;28;2130;-69
2022/12/18 07:34:48;;;;;;;;;;;-5.10;99.90;;;-6.43;100.00;96935.69;10477606;28;1973;-68
2022/12/18 07:39:50;;;;;;;;;;;-5.20;99.90;;;-6.56;100.00;96926.31;10478794;28;2016;-71
2022/12/18 07:44:53;;;;;;;;;;;-5.30;99.90;;;-6.51;100.00;96927.72;10488308;28;1997;-74
2022/12/18 07:49:56;;;;;;;;;;;-5.30;99.90;;;-6.53;100.00;96927.84;10482155;28;1968;-69
2022/12/18 07:55:01;;;;;;;;;;;-5.40;99.90;;;-6.40;100.00;96920.53;10502108;28;1928;-71
2022/12/18 08:00:03;;;;;;;;;;;-5.30;99.90;;;-6.41;100.00;96934.59;10482045;28;1968;-71
2022/12/18 08:05:06;;;;;;;;;;;-5.20;99.90;;;-6.34;100.00;96932.25;10492039;28;1914;-70
2022/12/18 08:10:09;;;;;;;;;;;-5.20;99.90;;;-6.15;100.00;96939.22;10518708;28;1937;-69
2022/12/18 08:15:12;;;;;;;;;;;-5.10;99.90;;;-5.74;100.00;96948.44;10518959;28;2123;-69
2022/12/18 08:20:15;;;;;;;;;;;-4.80;99.90;;;-5.96;100.00;96954.06;10515700;28;2042;-69
2022/12/18 08:25:17;;;;;;;;;;;-4.70;99.90;;;-6.00;100.00;96941.25;10521272;28;1959;-68
2022/12/18 08:30:23;;;;;;;;;;;-4.70;99.90;;;-5.76;100.00;96955.63;10517245;28;1953;-68
2022/12/18 08:35:26;;;;;;;;;;;-4.70;99.90;;;-5.56;100.00;96949.34;10511307;28;2076;-69
2022/12/18 08:40:35;;;;;;;;;;;-4.40;99.90;;;-5.47;100.00;96952.88;10510105;28;1940;-71
2022/12/18 08:45:38;;;;;;;;;;;-4.40;99.90;;;-5.54;100.00;96944.75;10515175;28;1917;-71
2022/12/18 08:50:41;;;;;;;;;;;-4.20;99.90;;;-5.62;100.00;96957.78;10508356;28;1953;-69
2022/12/18 08:55:44;;;;;;;;;;;-4.30;99.90;;;-5.32;100.00;96958.47;10517453;28;2053;-70
2022/12/18 09:00:52;;;;;;;;;;;-4.30;99.90;;;-4.88;100.00;96953.38;10514408;28;1969;-70
2022/12/18 09:05:54;;;;;;;;;;;-4.00;99.90;;;-5.22;100.00;96954.84;10508388;28;2007;-71
2022/12/18 09:10:57;;;;;;;;;;;-3.90;99.90;;;-5.07;100.00;96957.78;10506740;28;1947;-69
2022/12/18 09:16:00;;;;;;;;;;;-3.90;99.90;;;-5.47;100.00;96966.81;10503139;28;2066;-67
2022/12/18 09:21:03;;;;;;;;;;;-4.40;99.90;;;-5.43;100.00;96965.53;10510961;28;1971;-68
2022/12/18 09:26:07;;;;;;;;;;;-4.10;99.90;;;-5.29;100.00;96964.22;10507369;28;1977;-69
2022/12/18 09:31:10;;;;;;;;;;;-4.10;99.90;;;-5.53;100.00;96967.41;10504353;28;2023;-68
2022/12/18 09:36:13;;;;;;;;;;;-4.20;99.90;;;-5.43;100.00;96957.69;10518488;28;1992;-69
2022/12/18 09:41:15;;;;;;;;;;;-4.30;99.90;;;-5.73;100.00;96957.94;10510001;28;1934;-70
2022/12/18 09:46:18;;;;;;;;;;;-4.40;99.90;;;-5.41;100.00;96952.28;10498588;28;2063;-68
2022/12/18 09:51:24;;;;;;;;;;;-4.30;99.90;;;-5.27;100.00;96951.81;10507452;28;1987;-67
2022/12/18 09:56:27;;;;;;;;;;;-4.10;99.90;;;-5.04;100.00;96943.53;10511996;28;2172;-70
2022/12/18 10:01:29;;;;;;;;;;;-4.00;99.90;;;-5.06;100.00;96941.06;10523171;28;1986;-67
2022/12/18 10:06:46;;;;;;;;;;;-3.80;99.90;;;-5.08;100.00;96943.03;10516292;28;2116;-69
2022/12/18 10:11:48;;;;;;;;;;;-3.80;99.90;;;-5.65;100.00;96939.72;10519998;28;1904;-69
2022/12/18 10:16:51;;;;;;;;;;;-4.00;99.90;;;-5.51;100.00;96923.53;10510873;28;1938;-68
2022/12/18 10:21:54;;;;;;;;;;;-4.30;99.90;;;-4.66;100.00;96922.28;10514212;28;1910;-68
2022/12/18 10:26:57;;;;;;;;;;;-4.00;99.90;;;-4.44;100.00;96914.94;10516236;28;2011;-69
2022/12/18 10:31:59;;;;;;;;;;;-3.50;99.90;;;-4.26;100.00;96904.38;10510644;28;1895;-67
2022/12/18 10:37:02;;;;;;;;;;;-3.30;99.90;;;-4.24;100.00;96894.56;10507779;28;2095;-69
2022/12/18 10:42:05;;;;;;;;;;;-3.00;99.90;;;-4.42;100.00;96886.72;10523764;28;1915;-69
2022/12/18 10:47:07;;;;;;;;;;;-3.20;99.90;;;-4.63;100.00;96894.94;10517525;28;1922;-73
2022/12/18 10:52:13;;;;;;;;;;;-3.20;99.90;;;-4.75;100.00;96904.00;10510552;28;2040;-69
2022/12/18 10:57:16;;;;;;;;;;;-3.50;99.90;;;-4.33;100.00;96893.66;10516668;28;1973;-69
2022/12/18 11:02:19;;;;;;;;;;;-3.40;99.90;;;-4.57;100.00;96902.19;10489793;28;1956;-67
2022/12/18 11:07:22;;;;;;;;;;;-2.00;99.90;;;-5.06;100.00;96912.22;10506356;28;2099;-68
2022/12/18 11:12:25;;;;;;;;;;;-3.50;99.90;;;-4.85;100.00;96916.34;10508779;28;1990;-69
2022/12/18 11:17:29;;;;;;;;;;;-3.70;99.90;;;-4.16;100.00;96911.19;10513661;28;1954;-68
2022/12/18 11:22:31;;;;;;;;;;;-3.30;99.90;;;-3.68;100.00;96911.66;10515288;28;1964;-68
2022/12/18 11:27:34;;;;;;;;;;;-2.80;99.90;;;-4.56;100.00;96919.59;10513528;28;1952;-68
2022/12/18 11:32:37;;;;;;;;;;;-2.90;99.90;;;-4.62;100.00;96915.75;10518987;28;1978;-72
2022/12/18 11:37:40;;;;;;;;;;;-3.40;99.90;;;-4.68;100.00;96910.28;10510520;28;2023;-68
2022/12/18 11:42:42;;;;;;;;;;;-3.40;99.90;;;-4.79;100.00;96900.03;10508962;28;2031;-68
2022/12/18 11:47:45;;;;;;;;;;;-3.40;99.90;;;-5.16;100.00;96900.97;10509863;28;1980;-68
2022/12/18 11:52:48;;;;;;;;;;;-3.70;99.90;;;-4.98;100.00;96891.31;10518011;28;2533;-68
2022/12/18 11:57:58;;;;;;;;;;;-3.70;99.90;;;-5.32;100.00;96901.63;10508220;28;1986;-68
2022/12/18 12:03:01;;;;;;;;;;;-4.00;99.90;;;-5.29;100.00;96896.09;10509908;28;2180;-67
2022/12/18 12:08:04;;;;;;;;;;;-4.00;99.90;;;-4.50;100.00;96886.66;10507975;28;2133;-70
2022/12/18 12:13:08;;;;;;;;;;;-3.70;99.90;;;-4.88;100.00;96883.41;10508610;28;2054;-70
2022/12/18 12:18:12;;;;;;;;;;;-3.60;99.90;;;-5.12;100.00;96897.09;10513627;28;2027;-67
2022/12/18 12:23:14;;;;;;;;;;;-3.60;99.90;;;-4.98;100.00;96883.47;10499636;28;2021;-67
2022/12/18 12:28:17;;;;;;;;;;;-3.80;99.90;;;-4.80;100.00;96870.34;10506166;28;1958;-67
2022/12/18 12:33:20;;;;;;;;;;;-3.70;99.90;;;-4.73;100.00;96868.75;10513061;28;1962;-68
2022/12/18 12:38:22;;;;;;;;;;;-3.40;99.90;;;-4.68;100.00;96868.31;10501591;28;1959;-67
2022/12/18 12:43:25;;;;;;;;;;;-3.40;99.90;;;-4.84;100.00;96860.31;10508296;28;2011;-68
2022/12/18 12:48:28;;;;;;;;;;;-3.40;99.90;;;-5.35;100.00;96864.41;10519293;28;1959;-68
2022/12/18 12:53:32;;;;;;;;;;;-3.90;99.90;;;-5.04;100.00;96868.31;10511893;28;1927;-67
2022/12/18 12:58:34;;;;;;;;;;;-3.90;99.90;;;-5.38;100.00;96875.19;10498104;28;1951;-67
2022/12/18 13:03:37;;;;;;;;;;;-4.00;99.90;;;-5.27;100.00;96881.06;10514524;28;2008;-68
2022/12/18 13:08:41;;;;;;;;;;;-3.60;99.90;;;-5.31;100.00;96874.44;10517994;28;1942;-68
2022/12/18 13:13:44;;;;;;;;;;;-4.10;99.90;;;-4.71;100.00;96873.84;10520363;28;2041;-68
2022/12/18 13:18:48;;;;;;;;;;;-3.70;99.90;;;-4.75;100.00;96888.25;10519716;28;1974;-70
2022/12/18 13:23:51;;;;;;;;;;;-3.50;99.90;;;-4.84;100.00;96894.41;10515760;28;1986;-68
2022/12/18 13:28:54;;;;;;;;;;;-3.50;99.90;;;-5.02;100.00;96882.13;10498860;28;2180;-68
2022/12/18 13:33:57;;;;;;;;;;;-3.60;99.90;;;-5.31;100.00;96886.72;10522323;28;2136;-76
2022/12/18 13:39:20;;;;;;;;;;;-3.80;99.90;;;-5.09;100.00;96886.31;10519017;28;1939;-68
2022/12/18 13:44:34;;;;;;;;;;;-4.00;99.90;;;-4.67;100.00;96880.47;10531188;28;1855;-67
2022/12/18 13:49:42;;;;;;;;;;;-3.60;99.90;;;-4.74;100.00;96879.41;10520243;28;1967;-68
2022/12/18 13:54:45;;;;;;;;;;;-3.50;99.90;;;-4.86;100.00;96870.94;10515012;28;1978;-70
2022/12/18 13:59:49;;;;;;;;;;;-3.50;99.90;;;-5.18;100.00;96866.22;10513067;28;1978;-68
2022/12/18 14:04:51;;;;;;;;;;;-3.30;99.90;;;-5.53;100.00;96864.41;10523308;28;2062;-70
2022/12/18 14:09:56;;;;;;;;;;;-4.10;99.90;;;-5.44;100.00;96869.56;10535361;28;2138;-72
2022/12/18 14:15:18;;;;;;;;;;;-4.30;99.90;;;-5.13;100.00;96873.66;10502838;28;1970;-68
2022/12/18 14:20:21;;;;;;;;;;;-4.10;99.90;;;-5.01;100.00;96872.47;10511628;28;1970;-68
2022/12/18 14:25:29;;;;;;;;;;;-3.90;99.90;;;-4.96;100.00;96875.47;10499670;28;1997;-68
2022/12/18 14:30:32;;;;;;;;;;;-3.80;99.90;;;-4.84;100.00;96895.22;10525189;28;1914;-68
2022/12/18 14:35:38;;;;;;;;;;;-3.70;99.90;;;-4.69;100.00;96892.91;10515349;28;1962;-72
2022/12/18 14:40:41;;;;;;;;;;;-3.60;99.90;;;-4.91;100.00;96884.50;10507639;28;1990;-67
2022/12/18 14:45:45;;;;;;;;;;;-3.60;99.90;;;-5.28;100.00;96875.94;10515055;28;1971;-68
2022/12/18 14:50:49;;;;;;;;;;;-3.90;99.90;;;-5.57;100.00;96881.38;10513204;28;1994;-69
2022/12/18 14:55:53;;;;;;;;;;;-4.20;99.90;;;-5.82;100.00;96885.47;10505914;28;1910;-67
2022/12/18 15:00:57;;;;;;;;;;;-4.30;99.90;;;-5.90;100.00;96890.63;10530904;28;1883;-68
2022/12/18 15:06:00;;;;;;;;;;;-4.60;99.90;;;-6.00;100.00;96891.50;10530095;28;1927;-68
2022/12/18 15:11:04;;;;;;;;;;;-4.70;99.90;;;-5.95;100.00;96883.22;10518695;28;2024;-69
2022/12/18 15:16:14;;;;;;;;;;;-4.80;99.90;;;-5.87;100.00;96891.16;10526011;28;1942;-69
2022/12/18 15:21:17;;;;;;;;;;;-4.70;99.90;;;-6.06;100.00;96892.06;10515576;28;1903;-68
2022/12/18 15:26:20;;;;;;;;;;;-4.70;99.90;;;-6.02;100.00;96887.38;10527002;28;1975;-68
2022/12/18 15:31:23;;;;;;;;;;;-4.80;99.90;;;-5.65;100.00;96895.19;10501455;28;1974;-69
2022/12/18 15:36:26;;;;;;;;;;;-4.60;99.90;;;-5.87;100.00;96887.72;10520252;28;1954;-68
2022/12/18 15:41:29;;;;;;;;;;;-4.40;99.90;;;-6.05;100.00;96885.03;10515970;28;1966;-68
2022/12/18 15:46:31;;;;;;;;;;;-4.70;99.90;;;-6.14;100.00;96886.72;10521347;28;2169;-70
2022/12/18 15:51:34;;;;;;;;;;;-4.90;99.90;;;-6.15;100.00;96892.13;10521738;28;1961;-71
2022/12/18 16:02:05;;;;;;;;;;;-5.00;99.90;;;-6.23;100.00;96892.84;10503022;28;2034;-68
2022/12/18 16:07:09;;;;;;;;;;;-5.00;99.90;;;-6.25;100.00;96892.13;10521388;28;1984;-70
2022/12/18 16:12:26;;;;;;;;;;;-5.00;99.90;;;-6.20;100.00;96884.69;10516497;28;1916;-70
2022/12/18 16:17:28;;;;;;;;;;;-4.90;99.90;;;-6.17;100.00;96873.94;10504548;28;2003;-70
2022/12/18 16:22:31;;;;;;;;;;;-5.00;99.90;;;-5.87;100.00;96887.72;10527011;28;1998;-71
2022/12/18 16:27:34;;;;;;;;;;;-4.80;99.90;;;-5.68;100.00;96873.69;10499401;28;1946;-67
2022/12/18 16:32:37;;;;;;;;;;;-4.60;99.90;;;-5.64;100.00;96864.59;10508202;28;2075;-69
2022/12/18 16:37:40;;;;;;;;;;;-4.40;99.90;;;-5.65;100.00;96879.50;10516787;28;1927;-70
2022/12/18 16:42:42;;;;;;;;;;;-4.40;99.90;;;-5.55;100.00;96869.75;10524008;28;1903;-67
2022/12/18 16:47:45;;;;;;;;;;;-4.40;99.90;;;-5.61;100.00;96870.34;10512994;28;1985;-69
2022/12/18 16:52:47;;;;;;;;;;;-4.40;99.90;;;-5.44;100.00;96869.56;10515143;28;1923;-68
2022/12/18 16:57:51;;;;;;;;;;;-4.30;99.90;;;-5.21;100.00;96862.13;10518846;28;1789;-68
2022/12/18 17:02:53;;;;;;;;;;;-4.20;99.90;;;-5.02;100.00;96870.81;10517682;28;1915;-70
2022/12/18 17:07:56;;;;;;;;;;;-4.00;99.90;;;-5.14;100.00;96877.25;10518550;28;1983;-68
2022/12/18 17:12:59;;;;;;;;;;;-3.90;99.90;;;-5.15;100.00;96873.81;10496748;28;1906;-68
2022/12/18 17:18:02;;;;;;;;;;;-4.00;99.90;;;-5.29;100.00;96858.56;10520980;28;1896;-67
2022/12/18 17:23:05;;;;;;;;;;;-4.00;99.90;;;-5.16;100.00;96864.28;10518143;28;1934;-68
2022/12/18 17:28:08;;;;;;;;;;;-4.00;99.90;;;-5.37;100.00;96856.69;10519420;28;1946;-68
2022/12/18 17:33:11;;;;;;;;;;;-4.00;99.90;;;-5.58;100.00;96864.84;10522809;28;2002;-67
2022/12/18 17:38:16;;;;;;;;;;;-4.20;99.90;;;-5.75;100.00;96861.19;10519632;28;1883;-68
2022/12/18 17:43:19;;;;;;;;;;;-4.40;99.90;;;-5.72;100.00;96867.94;10514544;28;2024;-69
2022/12/18 17:48:23;;;;;;;;;;;-4.50;99.90;;;-5.78;100.00;96868.53;10522076;28;1971;-70
2022/12/18 17:53:31;;;;;;;;;;;-4.50;99.90;;;-6.27;100.00;96873.13;10521541;28;2109;-68
2022/12/18 17:58:38;;;;;;;;;;;-4.80;99.90;;;-6.09;100.00;96871.44;10524835;28;1840;-72
2022/12/18 18:03:41;;;;;;;;;;;-4.90;99.90;;;-6.21;100.00;96862.09;10522225;28;1958;-73
2022/12/18 18:08:44;;;;;;;;;;;-4.90;99.90;;;-6.13;100.00;96869.22;10522521;28;1926;-68
2022/12/18 18:14:03;;;;;;;;;;;-5.00;99.90;;;-6.01;100.00;96863.69;10524321;28;1931;-68
2022/12/18 18:19:06;;;;;;;;;;;-4.90;99.90;;;-6.24;100.00;96857.13;10521800;28;1948;-68
2022/12/18 18:24:08;;;;;;;;;;;-4.90;99.90;;;-6.07;100.00;96856.41;10532131;28;1765;-68
2022/12/18 18:29:11;;;;;;;;;;;-4.90;99.90;;;-5.80;100.00;96858.16;10524241;28;1965;-68
2022/12/18 18:34:14;;;;;;;;;;;-4.80;99.90;;;-5.64;100.00;96854.94;10527612;28;1929;-68
2022/12/18 18:39:16;;;;;;;;;;;-4.60;99.90;;;-5.53;100.00;96857.38;10531403;28;1724;-69
2022/12/18 18:44:19;;;;;;;;;;;-4.40;99.90;;;-5.59;100.00;96849.25;10517331;28;2049;-68
2022/12/18 18:49:28;;;;;;;;;;;-4.40;99.90;;;-6.04;100.00;96843.03;10500840;28;2094;-69
2022/12/18 18:54:31;;;;;;;;;;;-4.50;99.90;;;-6.09;100.00;96844.44;10528533;28;2080;-68
2022/12/18 18:59:34;;;;;;;;;;;-4.90;99.90;;;-6.13;100.00;96843.88;10531376;28;1998;-68
2022/12/18 19:04:37;;;;;;;;;;;-4.90;99.90;;;-6.30;100.00;96848.09;10529460;28;2096;-69
2022/12/18 19:09:51;;;;;;;;;;;-5.00;99.90;;;-6.44;100.00;96832.81;10525545;28;2177;-68
2022/12/18 19:14:53;;;;;;;;;;;-5.10;99.90;;;-6.56;100.00;96836.56;10518959;28;2014;-70
2022/12/18 19:19:56;;;;;;;;;;;-5.20;99.90;;;-6.49;100.00;96836.84;10508622;28;2072;-71
2022/12/18 19:24:59;;;;;;;;;;;-5.30;99.90;;;-6.68;100.00;96843.78;10516072;28;2002;-74
2022/12/18 19:30:01;;;;;;;;;;;-5.40;99.90;;;-6.66;100.00;96831.38;10516223;28;2064;-68
2022/12/18 19:35:04;;;;;;;;;;;-5.30;99.90;;;-7.02;100.00;96830.31;10538658;27;2061;-69
2022/12/18 19:40:09;;;;;;;;;;;-5.50;99.90;;;-6.76;100.00;96835.78;10514975;28;2098;-67
2022/12/18 19:45:14;;;;;;;;;;;-5.70;99.90;;;-6.46;100.00;96831.34;10528761;28;2190;-69
2022/12/18 19:50:18;;;;;;;;;;;-5.40;99.90;;;-6.11;100.00;96835.88;10517211;28;2104;-68
2022/12/18 19:55:21;;;;;;;;;;;-5.20;99.90;;;-6.20;100.00;96832.34;10530675;28;2079;-68
2022/12/18 20:00:24;;;;;;;;;;;-5.00;99.90;;;-5.96;100.00;96828.41;10525811;28;2060;-68
2022/12/18 20:05:26;;;;;;;;;;;-4.90;99.90;;;-5.89;100.00;96826.81;10521497;28;2140;-69
2022/12/18 20:10:30;;;;;;;;;;;-4.70;99.90;;;-6.01;100.00;96834.88;10533599;28;2101;-68
2022/12/18 20:15:34;;;;;;;;;;;-4.80;99.90;;;-6.15;100.00;96819.66;10529014;28;2026;-70
2022/12/18 20:20:44;;;;;;;;;;;-4.80;99.90;;;-6.14;100.00;96812.63;10517458;28;2107;-69
2022/12/18 20:25:49;;;;;;;;;;;-4.90;99.90;;;-6.40;100.00;96807.22;10517764;28;2037;-68
2022/12/18 20:30:52;;;;;;;;;;;-5.00;99.90;;;-6.47;100.00;96800.91;10528458;28;2014;-69
2022/12/18 20:35:55;;;;;;;;;;;-5.20;99.90;;;-6.54;100.00;96801.47;10506171;28;2048;-67
2022/12/18 20:41:03;;;;;;;;;;;-5.20;99.90;;;-6.46;100.00;96799.94;10522597;28;2101;-68
2022/12/18 20:46:06;;;;;;;;;;;-5.30;99.90;;;-6.43;100.00;96804.88;10525596;28;2088;-68
2022/12/18 20:51:09;;;;;;;;;;;-5.30;99.90;;;-6.55;100.00;96802.44;10523012;28;2087;-67
2022/12/18 20:56:12;;;;;;;;;;;-5.30;99.90;;;-6.18;100.00;96809.47;10517629;28;2199;-68
2022/12/18 21:01:19;;;;;;;;;;;-5.10;99.90;;;-6.24;100.00;96817.06;10524206;28;2096;-67
2022/12/18 21:06:22;;;;;;;;;;;-5.10;99.90;;;-6.56;100.00;96798.16;10507518;28;2454;-67
2022/12/18 21:16:45;;;;;;;;;;;-5.40;99.90;;;-6.56;100.00;96779.84;10527787;28;2022;-67
2022/12/18 21:21:48;;;;;;;;;;;-5.40;99.90;;;-6.56;100.00;96784.25;10504987;28;2082;-66
2022/12/18 21:26:51;;;;;;;;;;;-3.50;99.90;;;-6.33;100.00;96790.81;10513335;28;2067;-65
2022/12/18 21:31:54;;;;;;;;;;;-5.20;99.90;;;-6.52;100.00;96780.41;10521264;28;2070;-68
2022/12/18 21:36:57;;;;;;;;;;;-5.20;99.90;;;-6.50;100.00;96777.63;10530747;28;2120;-66
2022/12/18 21:47:20;;;;;;;;;;;-4.80;99.90;;;-6.56;100.00;96764.16;10529778;28;2018;-67
2022/12/18 21:52:25;;;;;;;;;;;-5.20;99.90;;;-6.72;100.00;96758.72;10524659;28;2036;-69
2022/12/18 21:57:34;;;;;;;;;;;-5.40;99.90;;;-6.73;100.00;96757.09;10521365;28;2180;-69
2022/12/18 22:02:36;;;;;;;;;;;-5.40;99.90;;;-6.59;100.00;96768.88;10529211;28;1981;-68
2022/12/18 22:07:40;;;;;;;;;;;-5.40;99.90;;;-6.50;100.00;96775.03;10513410;28;2038;-67
2022/12/18 22:12:47;;;;;;;;;;;-5.30;99.90;;;-6.30;100.00;96800.16;10524633;28;2013;-67
2022/12/18 22:17:50;;;;;;;;;;;-5.30;99.90;;;-6.12;100.00;96798.41;10524458;28;2030;-68
2022/12/18 22:23:01;;;;;;;;;;;-5.10;99.90;;;-6.31;100.00;96761.88;10529438;28;2089;-66
2022/12/18 22:33:35;;;;;;;;;;;-5.10;99.90;;;-6.51;100.00;96755.06;10521857;28;2069;-67
2022/12/18 22:38:38;;;;;;;;;;;-5.20;99.90;;;-6.67;100.00;96760.91;10518792;28;2065;-66
2022/12/18 22:43:41;;;;;;;;;;;-5.40;99.90;;;-6.57;100.00;96762.53;10527832;28;2071;-67
2022/12/18 22:48:44;;;;;;;;;;;-5.40;99.90;;;-6.71;100.00;96746.47;10519465;28;2047;-73
2022/12/18 22:53:47;;;;;;;;;;;-5.50;99.90;;;-6.77;100.00;96750.47;10516401;28;2081;-69
2022/12/18 22:58:50;;;;;;;;;;;-5.50;99.90;;;-6.70;100.00;96741.09;10519302;28;2118;-65
2022/12/18 23:03:53;;;;;;;;;;;-5.50;99.90;;;-6.79;100.00;96741.13;10520661;28;2069;-67
2022/12/18 23:08:57;;;;;;;;;;;-5.50;99.90;;;-6.75;100.00;96748.53;10520090;28;2017;-67
2022/12/18 23:14:00;;;;;;;;;;;-5.50;99.90;;;-6.73;100.00;96741.41;10522351;28;2069;-67
2022/12/18 23:19:04;;;;;;;;;;;-5.50;99.90;;;-6.62;100.00;96737.75;10506297;28;2076;-69
2022/12/18 23:24:17;;;;;;;;;;;-5.40;99.90;;;-6.51;100.00;96726.31;10519087;28;2066;-67
2022/12/18 23:29:20;;;;;;;;;;;-5.40;99.90;;;-6.41;100.00;96703.56;10517574;28;2093;-68
2022/12/18 23:34:22;;;;;;;;;;;-5.30;99.90;;;-6.40;100.00;96699.97;10506890;28;2160;-67